Aviation Digital Data Service (ADDS)

Output produced by TAFs form (2259 UTC 20 December 2014)
found at http://aviationweather.gov/adds/tafs/
 
KELP 201722Z 2018/2118 28005KT P6SM FEW150 SCT250